createdAt,value
2023-01-11T00:00:26.571Z,97071.38
2023-01-11T00:03:00.889Z,97050.56
2023-01-11T00:05:27.441Z,97049.78
2023-01-11T00:07:54.081Z,97048.72
2023-01-11T00:10:20.910Z,97044.63
2023-01-11T00:12:47.448Z,97056.47
2023-01-11T00:15:14.889Z,97016.94
2023-01-11T00:17:41.800Z,97050.84
2023-01-11T00:20:10.180Z,97064.94
2023-01-11T00:22:37.052Z,97029.72
2023-01-11T00:25:04.040Z,97006.38
2023-01-11T00:27:30.379Z,97028.22
2023-01-11T00:29:56.767Z,97017.66
2023-01-11T00:32:23.481Z,97035.13
2023-01-11T00:34:49.930Z,97047.69
2023-01-11T00:37:16.317Z,97009.91
2023-01-11T00:39:42.689Z,97038.19
2023-01-11T00:42:29.598Z,97035.09
2023-01-11T00:45:14.389Z,97010.94
2023-01-11T00:48:00.197Z,97010.72
2023-01-11T00:50:30.097Z,97008.41
2023-01-11T00:52:58.095Z,96994.72
2023-01-11T00:55:25.641Z,97017.31
2023-01-11T00:57:52.591Z,97010.69
2023-01-11T01:00:20.918Z,97014.00
2023-01-11T01:02:47.780Z,96993.72
2023-01-11T01:05:14.609Z,96999.34
2023-01-11T01:07:41.064Z,96990.91
2023-01-11T01:10:09.476Z,96991.94
2023-01-11T01:12:54.549Z,96978.56
2023-01-11T01:15:21.181Z,96992.69
2023-01-11T01:17:47.934Z,96995.75
2023-01-11T01:20:15.271Z,96981.41
2023-01-11T01:22:42.023Z,97007.88
2023-01-11T01:25:09.126Z,96975.19
2023-01-11T01:27:35.485Z,96984.94
2023-01-11T01:30:01.853Z,96977.00
2023-01-11T01:32:28.211Z,97001.16
2023-01-11T01:34:54.571Z,96978.28
2023-01-11T01:37:20.948Z,96992.41
2023-01-11T01:39:47.319Z,96992.88
2023-01-11T01:42:15.646Z,97006.78
2023-01-11T01:44:56.312Z,96977.00
2023-01-11T01:47:34.996Z,96998.06
2023-01-11T01:50:07.985Z,96967.72
2023-01-11T01:52:35.257Z,96965.19
2023-01-11T01:55:10.185Z,96979.03
2023-01-11T01:57:39.945Z,96993.91
2023-01-11T02:00:09.832Z,96985.41
2023-01-11T02:02:37.557Z,96974.41
2023-01-11T02:05:05.489Z,96965.09
2023-01-11T02:07:34.213Z,96965.88
2023-01-11T02:10:06.497Z,96975.53
2023-01-11T02:12:38.261Z,96971.19
2023-01-11T02:15:05.404Z,96949.13
2023-01-11T02:17:31.832Z,96957.28
2023-01-11T02:20:13.944Z,96971.44
2023-01-11T02:23:09.305Z,96964.75
2023-01-11T02:25:56.928Z,96962.94
2023-01-11T02:28:49.394Z,96943.88
2023-01-11T02:31:45.636Z,96941.31
2023-01-11T02:34:51.488Z,96946.47
2023-01-11T02:37:28.079Z,96948.19
2023-01-11T02:40:07.342Z,96936.63
2023-01-11T02:42:57.121Z,96941.53
2023-01-11T02:45:23.431Z,96953.00
2023-01-11T02:48:03.190Z,96935.13
2023-01-11T02:50:33.818Z,96920.97
2023-01-11T02:53:10.792Z,96944.28
2023-01-11T02:55:48.425Z,96939.63
2023-01-11T02:58:16.868Z,96930.41
2023-01-11T03:00:44.729Z,96931.16
2023-01-11T03:03:19.400Z,96948.59
2023-01-11T03:06:00.653Z,96893.31
2023-01-11T03:08:41.289Z,96943.34
2023-01-11T03:11:12.754Z,96919.94
2023-01-11T03:13:54.834Z,96937.19
2023-01-11T03:16:27.439Z,96934.56
2023-01-11T03:18:57.788Z,96877.09
2023-01-11T03:21:50.944Z,96901.94
2023-01-11T03:24:57.969Z,96916.25
2023-01-11T03:27:43.072Z,96914.25
2023-01-11T03:30:20.523Z,96910.66
2023-01-11T03:32:48.811Z,96887.50
2023-01-11T03:35:24.272Z,96903.97
2023-01-11T03:38:16.172Z,96905.19
2023-01-11T03:40:49.442Z,96901.56
2023-01-11T03:43:17.677Z,96916.38
2023-01-11T03:45:54.838Z,96875.09
2023-01-11T03:48:25.265Z,96888.22
2023-01-11T03:50:54.403Z,96908.00
2023-01-11T03:53:23.802Z,96865.28
2023-01-11T03:55:55.898Z,96895.94
2023-01-11T03:58:25.048Z,96895.06
2023-01-11T04:00:51.778Z,96860.25
2023-01-11T04:03:18.222Z,96873.31
2023-01-11T04:05:52.053Z,96864.84
2023-01-11T04:08:18.734Z,96866.06
2023-01-11T04:10:45.405Z,96852.47
2023-01-11T04:13:11.803Z,96861.41
2023-01-11T04:15:38.143Z,96856.00
2023-01-11T04:18:05.119Z,96863.13
2023-01-11T04:20:40.877Z,96845.03
2023-01-11T04:23:09.482Z,96848.66
2023-01-11T04:25:35.841Z,96853.38
2023-01-11T04:28:02.229Z,96848.72
2023-01-11T04:30:28.645Z,96849.19
2023-01-11T04:32:57.841Z,96858.91
2023-01-11T04:35:24.203Z,96845.03
2023-01-11T04:37:54.488Z,96849.31
2023-01-11T04:40:21.035Z,96849.53
2023-01-11T04:42:47.432Z,96851.94
2023-01-11T04:45:13.984Z,96859.34
2023-01-11T04:47:40.406Z,96849.91
2023-01-11T04:50:08.432Z,96849.72
2023-01-11T04:52:34.922Z,96847.22
2023-01-11T04:55:01.291Z,96828.63
2023-01-11T04:57:27.728Z,96830.38
2023-01-11T04:59:54.056Z,96833.44
2023-01-11T05:02:20.404Z,96816.38
2023-01-11T05:04:46.747Z,96823.00
2023-01-11T05:07:13.104Z,96821.91
2023-01-11T05:09:40.739Z,96818.25
2023-01-11T05:12:07.146Z,96825.59
2023-01-11T05:14:33.684Z,96829.13
2023-01-11T05:17:00.174Z,96814.16
2023-01-11T05:19:26.529Z,96818.06
2023-01-11T05:21:52.894Z,96803.41
2023-01-11T05:24:19.317Z,96814.78
2023-01-11T05:26:46.211Z,96796.41
2023-01-11T05:29:16.299Z,96804.00
2023-01-11T05:31:43.035Z,96789.09
2023-01-11T05:34:12.472Z,96806.50
2023-01-11T05:36:39.501Z,96800.81
2023-01-11T05:39:05.957Z,96796.41
2023-01-11T05:41:32.727Z,96797.41
2023-01-11T05:44:17.773Z,96794.44
2023-01-11T05:46:44.796Z,96781.91
2023-01-11T05:49:13.102Z,96800.84
2023-01-11T05:51:39.954Z,96774.16
2023-01-11T05:54:09.529Z,96776.19
2023-01-11T05:56:35.917Z,96776.47
2023-01-11T05:59:04.083Z,96778.28
2023-01-11T06:01:31.204Z,96765.84
2023-01-11T06:03:57.677Z,96777.03
2023-01-11T06:06:24.062Z,96768.44
2023-01-11T06:08:50.472Z,96767.38
2023-01-11T06:11:17.014Z,96767.00
2023-01-11T06:13:43.662Z,96767.50
2023-01-11T06:16:12.995Z,96747.84
2023-01-11T06:18:42.178Z,96761.94
2023-01-11T06:21:09.901Z,96739.09
2023-01-11T06:23:39.283Z,96746.94
2023-01-11T06:26:11.456Z,96753.63
2023-01-11T06:28:38.491Z,96754.97
2023-01-11T06:31:05.714Z,96755.75
2023-01-11T06:33:33.050Z,96740.44
2023-01-11T06:36:04.062Z,96735.53
2023-01-11T06:38:30.423Z,96730.47
2023-01-11T06:41:00.668Z,96724.66
2023-01-11T06:43:28.731Z,96731.72
2023-01-11T06:45:55.545Z,96733.63
2023-01-11T06:48:24.093Z,96739.22
2023-01-11T06:50:52.741Z,96738.25
2023-01-11T06:53:19.635Z,96743.31
2023-01-11T06:55:50.119Z,96737.00
2023-01-11T06:58:16.503Z,96730.28
2023-01-11T07:00:43.243Z,96740.44
2023-01-11T07:03:11.080Z,96737.97
2023-01-11T07:05:37.495Z,96743.13
2023-01-11T07:08:03.964Z,96727.81
2023-01-11T07:10:31.516Z,96731.34
2023-01-11T07:12:58.095Z,96740.34
2023-01-11T07:15:24.549Z,96740.44
2023-01-11T07:17:55.646Z,96732.69
2023-01-11T07:20:23.085Z,96741.69
2023-01-11T07:22:49.941Z,96733.75
2023-01-11T07:25:16.644Z,96737.09
2023-01-11T07:27:43.146Z,96758.13
2023-01-11T07:30:10.137Z,96753.16
2023-01-11T07:32:36.631Z,96744.91
2023-01-11T07:35:03.206Z,96747.22
2023-01-11T07:37:32.593Z,96757.47
2023-01-11T07:39:59.014Z,96728.59
2023-01-11T07:42:43.710Z,96754.69
2023-01-11T07:45:10.671Z,96740.91
2023-01-11T07:47:37.013Z,96737.09
2023-01-11T07:50:03.726Z,96752.09
2023-01-11T07:52:30.080Z,96748.25
2023-01-11T07:55:02.155Z,96752.56
2023-01-11T07:57:31.390Z,96750.84
2023-01-11T07:59:57.805Z,96742.31
2023-01-11T08:02:24.333Z,96756.69
2023-01-11T08:04:50.884Z,96750.38
2023-01-11T08:07:17.232Z,96745.09
2023-01-11T08:09:43.618Z,96756.31
2023-01-11T08:12:28.556Z,96746.25
2023-01-11T08:14:54.983Z,96750.53
2023-01-11T08:17:21.457Z,96746.81
2023-01-11T08:19:47.824Z,96746.72
2023-01-11T08:22:14.325Z,96746.34
2023-01-11T08:24:40.918Z,96732.53
2023-01-11T08:27:07.384Z,96751.59
2023-01-11T08:29:33.805Z,96734.00
2023-01-11T08:32:00.623Z,96737.72
2023-01-11T08:34:29.112Z,96738.56
2023-01-11T08:36:57.487Z,96752.53
2023-01-11T08:39:24.757Z,96743.09
2023-01-11T08:41:51.223Z,96745.78
2023-01-11T08:44:29.065Z,96739.91
2023-01-11T08:46:59.651Z,96749.28
2023-01-11T08:49:26.030Z,96728.81
2023-01-11T08:51:52.443Z,96742.28
2023-01-11T08:54:18.802Z,96751.28
2023-01-11T08:56:45.166Z,96754.63
2023-01-11T08:59:11.705Z,96753.03
2023-01-11T09:01:38.171Z,96745.44
2023-01-11T09:04:15.588Z,96757.81
2023-01-11T09:06:49.820Z,96762.09
2023-01-11T09:09:16.855Z,96749.16
2023-01-11T09:11:56.363Z,96757.31
2023-01-11T09:14:27.615Z,96762.00
2023-01-11T09:16:54.828Z,96750.69
2023-01-11T09:19:21.793Z,96739.78
2023-01-11T09:21:48.537Z,96766.97
2023-01-11T09:24:15.162Z,96742.63
2023-01-11T09:26:43.449Z,96749.31
2023-01-11T09:29:11.300Z,96758.22
2023-01-11T09:31:37.862Z,96752.09
2023-01-11T09:34:05.392Z,96757.16
2023-01-11T09:36:33.245Z,96758.22
2023-01-11T09:39:01.743Z,96754.84
2023-01-11T09:41:28.123Z,96752.75
2023-01-11T09:44:21.375Z,96769.88
2023-01-11T09:46:52.182Z,96749.50
2023-01-11T09:49:38.196Z,96760.50
2023-01-11T09:52:28.988Z,96782.88
2023-01-11T09:54:58.543Z,96762.75
2023-01-11T09:57:41.779Z,96780.44
2023-01-11T10:00:28.612Z,96777.56
2023-01-11T10:03:25.888Z,96785.22
2023-01-11T10:06:14.843Z,96779.66
2023-01-11T10:18:31.447Z,96777.84
2023-01-11T10:18:46.407Z,96804.56
2023-01-11T10:21:29.164Z,96800.09
2023-01-11T10:24:03.593Z,96827.69
2023-01-11T10:26:39.447Z,96801.34
2023-01-11T10:29:21.043Z,96812.53
2023-01-11T10:32:02.070Z,96801.41
2023-01-11T10:34:50.784Z,96784.88
2023-01-11T10:37:25.927Z,96785.63
2023-01-11T10:40:33.237Z,96795.28
2023-01-11T10:43:24.220Z,96791.25
2023-01-11T10:45:58.024Z,96789.22
2023-01-11T10:48:34.497Z,96786.06
2023-01-11T10:51:17.641Z,96784.53
2023-01-11T10:54:02.597Z,96790.16
2023-01-11T10:57:02.771Z,96776.00
2023-01-11T11:00:04.401Z,96800.41
2023-01-11T11:02:59.131Z,96793.41
2023-01-11T11:05:47.265Z,96784.59
2023-01-11T11:08:17.363Z,96792.50
2023-01-11T11:11:05.468Z,96790.88
2023-01-11T11:13:50.076Z,96773.84
2023-01-11T11:16:44.553Z,96761.38
2023-01-11T11:19:17.914Z,96761.38
2023-01-11T11:21:45.279Z,96748.19
2023-01-11T11:24:45.553Z,96764.66
2023-01-11T11:27:27.496Z,96744.06
2023-01-11T11:29:55.844Z,96758.06
2023-01-11T11:32:34.460Z,96780.41
2023-01-11T11:35:02.938Z,96776.31
2023-01-11T11:37:42.310Z,96773.84
2023-01-11T11:40:32.437Z,96788.16
2023-01-11T11:43:19.402Z,96796.56
2023-01-11T11:45:58.768Z,96794.72
2023-01-11T11:48:27.469Z,96807.66
2023-01-11T11:50:57.142Z,96815.56
2023-01-11T11:53:37.292Z,96812.91
2023-01-11T11:56:15.459Z,96809.22
2023-01-11T11:58:43.280Z,96816.00
2023-01-11T12:01:23.151Z,96811.34
2023-01-11T12:03:52.081Z,96812.69
2023-01-11T12:06:24.635Z,96817.28
2023-01-11T12:08:51.534Z,96816.97
2023-01-11T12:11:34.949Z,96799.94
2023-01-11T12:14:04.021Z,96805.00
2023-01-11T12:16:35.054Z,96816.25
2023-01-11T12:19:01.475Z,96826.88
2023-01-11T12:21:31.799Z,96807.94
2023-01-11T12:24:07.723Z,96807.84
2023-01-11T12:26:46.224Z,96803.06
2023-01-11T12:29:23.016Z,96809.94
2023-01-11T12:32:30.648Z,96810.34
2023-01-11T12:35:14.736Z,96823.81
2023-01-11T12:38:02.768Z,96815.16
2023-01-11T12:41:04.081Z,96806.94
2023-01-11T12:43:48.149Z,96801.63
2023-01-11T12:46:27.199Z,96804.03
2023-01-11T12:49:19.007Z,96816.41
2023-01-11T12:52:00.236Z,96834.47
2023-01-11T12:54:38.440Z,96851.88
2023-01-11T12:57:23.170Z,96849.66
2023-01-11T13:00:20.026Z,96844.88
2023-01-11T13:03:12.890Z,96848.25
2023-01-11T13:06:11.309Z,96845.97
2023-01-11T13:08:43.782Z,96846.00
2023-01-11T13:11:54.132Z,96834.41
2023-01-11T13:14:39.239Z,96849.06
2023-01-11T13:17:37.147Z,96840.59
2023-01-11T13:20:29.980Z,96860.06
2023-01-11T13:23:15.855Z,96856.25
2023-01-11T13:25:46.252Z,96863.56
2023-01-11T13:28:33.914Z,96855.34
2023-01-11T13:31:03.991Z,96857.28
2023-01-11T13:33:32.559Z,96854.16
2023-01-11T13:36:22.665Z,96849.69
2023-01-11T13:38:57.162Z,96857.91
2023-01-11T13:41:32.891Z,96874.81
2023-01-11T13:44:07.837Z,96871.19
2023-01-11T13:47:00.481Z,96884.34
2023-01-11T13:50:02.458Z,96885.28
2023-01-11T13:52:48.492Z,96892.38
2023-01-11T13:55:26.883Z,96898.13
2023-01-11T13:58:12.752Z,96903.41
2023-01-11T14:00:46.059Z,96900.00
2023-01-11T14:03:26.159Z,96899.91
2023-01-11T14:06:15.646Z,96888.59
2023-01-11T14:09:11.621Z,96913.13
2023-01-11T14:11:46.568Z,96923.06
2023-01-11T14:14:34.102Z,96926.34
2023-01-11T14:17:19.723Z,96936.78
2023-01-11T14:19:58.221Z,96940.91
2023-01-11T14:22:47.988Z,96927.66
2023-01-11T14:25:32.382Z,96942.72
2023-01-11T14:28:29.673Z,96951.44
2023-01-11T14:31:33.852Z,96966.28
2023-01-11T14:34:41.259Z,96968.66
2023-01-11T14:37:45.468Z,96972.69
2023-01-11T14:40:25.416Z,96978.91
2023-01-11T14:43:16.392Z,96991.69
2023-01-11T14:46:06.537Z,96978.38
2023-01-11T14:48:42.394Z,96995.78
2023-01-11T14:51:32.489Z,96998.03
2023-01-11T14:54:28.948Z,96994.25
2023-01-11T14:56:57.647Z,96994.50
2023-01-11T14:59:30.013Z,96990.31
2023-01-11T15:02:02.582Z,97004.56
2023-01-11T15:04:51.864Z,97005.91
2023-01-11T15:07:33.873Z,97005.44
2023-01-11T15:10:25.188Z,97008.03
2023-01-11T15:12:56.192Z,97018.78
2023-01-11T15:15:44.283Z,97013.69
2023-01-11T15:18:18.345Z,97018.31
2023-01-11T15:21:10.772Z,97015.56
2023-01-11T15:23:48.404Z,97032.63
2023-01-11T15:26:17.589Z,97023.84
2023-01-11T15:28:57.730Z,97023.94
2023-01-11T15:32:03.099Z,97028.81
2023-01-11T15:34:32.555Z,97027.13
2023-01-11T15:37:10.945Z,97031.59
2023-01-11T15:39:54.313Z,97038.78
2023-01-11T15:43:04.047Z,97046.19
2023-01-11T15:46:15.645Z,97023.00
2023-01-11T15:49:25.289Z,97048.19
2023-01-11T15:52:22.877Z,97053.06
2023-01-11T15:55:26.150Z,97037.25
2023-01-11T15:58:06.237Z,97052.19
2023-01-11T16:00:56.037Z,97042.53
2023-01-11T16:03:37.419Z,97064.22
2023-01-11T16:06:28.234Z,97064.84
2023-01-11T16:09:13.414Z,97069.75
2023-01-11T16:12:10.401Z,97069.28
2023-01-11T16:14:56.812Z,97083.06
2023-01-11T16:17:24.739Z,97069.69
2023-01-11T16:19:56.482Z,97074.94
2023-01-11T16:22:28.420Z,97078.34
2023-01-11T16:25:01.363Z,97060.88
2023-01-11T16:27:32.119Z,97071.97
2023-01-11T16:29:59.272Z,97067.78
2023-01-11T16:32:32.513Z,97074.72
2023-01-11T16:35:01.174Z,97082.00
2023-01-11T16:37:35.937Z,97083.31
2023-01-11T16:40:15.949Z,97083.97
2023-01-11T16:42:48.810Z,97082.88
2023-01-11T16:45:21.081Z,97090.56
2023-01-11T16:48:14.502Z,97096.91
2023-01-11T16:50:56.715Z,97094.38
2023-01-11T16:53:25.009Z,97102.59
2023-01-11T16:56:16.253Z,97107.31
2023-01-11T16:58:43.314Z,97113.00
2023-01-11T17:01:09.675Z,97113.56
2023-01-11T17:03:58.017Z,97119.25
2023-01-11T17:06:25.605Z,97115.19
2023-01-11T17:08:56.779Z,97117.81
2023-01-11T17:11:36.673Z,97132.13
2023-01-11T17:14:24.566Z,97140.69
2023-01-11T17:16:59.090Z,97135.06
2023-01-11T17:19:30.014Z,97143.53
2023-01-11T17:22:06.517Z,97150.19
2023-01-11T17:25:01.049Z,97141.69
2023-01-11T17:27:54.617Z,97141.72
2023-01-11T17:30:24.251Z,97137.13
2023-01-11T17:32:53.324Z,97142.06
2023-01-11T17:35:25.339Z,97155.50
2023-01-11T17:37:55.458Z,97160.69
2023-01-11T17:40:26.202Z,97159.94
2023-01-11T17:43:15.616Z,97165.88
2023-01-11T17:45:42.657Z,97166.16
2023-01-11T17:48:15.465Z,97175.97
2023-01-11T17:50:50.387Z,97174.41
2023-01-11T17:53:21.557Z,97183.94
2023-01-11T17:55:56.490Z,97170.22
2023-01-11T17:58:27.128Z,97198.97
2023-01-11T18:01:10.237Z,97193.09
2023-01-11T18:03:59.003Z,97200.50
2023-01-11T18:06:28.156Z,97202.19
2023-01-11T18:08:56.874Z,97202.41
2023-01-11T18:11:26.523Z,97206.59
2023-01-11T18:13:55.292Z,97214.88
2023-01-11T18:16:22.384Z,97221.88
2023-01-11T18:18:50.379Z,97231.66
2023-01-11T18:21:25.506Z,97235.38
2023-01-11T18:24:10.621Z,97230.50
2023-01-11T18:26:38.853Z,97225.13
2023-01-11T18:29:05.757Z,97236.16
2023-01-11T18:31:32.441Z,97240.28
2023-01-11T18:33:59.108Z,97233.56
2023-01-11T18:36:29.886Z,97232.00
2023-01-11T18:38:56.291Z,97239.41
2023-01-11T18:41:43.212Z,97236.03
2023-01-11T18:44:11.959Z,97239.09
2023-01-11T18:46:38.334Z,97237.84
2023-01-11T18:49:04.704Z,97245.53
2023-01-11T18:51:39.425Z,97232.44
2023-01-11T18:54:06.443Z,97235.78
2023-01-11T18:56:32.784Z,97250.47
2023-01-11T18:58:59.136Z,97245.63
2023-01-11T19:01:25.518Z,97258.44
2023-01-11T19:03:51.929Z,97253.53
2023-01-11T19:06:20.995Z,97264.91
2023-01-11T19:08:47.347Z,97271.34
2023-01-11T19:11:15.363Z,97265.97
2023-01-11T19:13:41.777Z,97255.19
2023-01-11T19:16:09.076Z,97243.78
2023-01-11T19:18:36.198Z,97245.59
2023-01-11T19:21:06.429Z,97242.06
2023-01-11T19:23:34.208Z,97246.69
2023-01-11T19:26:02.133Z,97252.91
2023-01-11T19:28:28.770Z,97236.38
2023-01-11T19:30:55.347Z,97243.09
2023-01-11T19:33:22.093Z,97244.91
2023-01-11T19:35:49.377Z,97243.66
2023-01-11T19:38:18.307Z,97242.63
2023-01-11T19:40:45.905Z,97231.53
2023-01-11T19:43:12.258Z,97259.31
2023-01-11T19:45:38.667Z,97260.34
2023-01-11T19:48:05.538Z,97265.56
2023-01-11T19:50:32.270Z,97272.03
2023-01-11T19:52:58.662Z,97244.78
2023-01-11T19:55:25.049Z,97260.44
2023-01-11T19:57:51.404Z,97250.06
2023-01-11T20:00:20.360Z,97252.88
2023-01-11T20:02:46.775Z,97252.09
2023-01-11T20:05:13.578Z,97236.44
2023-01-11T20:07:39.949Z,97244.84
2023-01-11T20:10:06.550Z,97243.09
2023-01-11T20:12:32.950Z,97248.00
2023-01-11T20:15:01.231Z,97240.34
2023-01-11T20:17:28.278Z,97239.09
2023-01-11T20:19:55.058Z,97242.91
2023-01-11T20:22:25.347Z,97243.44
2023-01-11T20:24:51.736Z,97226.47
2023-01-11T20:27:18.196Z,97241.63
2023-01-11T20:29:45.622Z,97240.34
2023-01-11T20:32:35.027Z,97238.50
2023-01-11T20:34:58.384Z,97235.94
2023-01-11T20:37:24.762Z,97222.25
2023-01-11T20:39:51.151Z,97221.47
2023-01-11T20:42:17.532Z,97226.69
2023-01-11T20:44:43.921Z,97236.97
2023-01-11T20:47:10.283Z,97231.56
2023-01-11T20:49:36.797Z,97230.88
2023-01-11T20:52:03.653Z,97212.63
2023-01-11T20:54:30.020Z,97232.22
2023-01-11T20:57:01.912Z,97215.38
2023-01-11T20:59:28.315Z,97206.84
2023-01-11T21:01:54.734Z,97208.81
2023-01-11T21:04:21.107Z,97208.34
2023-01-11T21:06:48.330Z,97212.19
2023-01-11T21:09:16.456Z,97210.38
2023-01-11T21:11:44.040Z,97202.88
2023-01-11T21:14:12.060Z,97195.22
2023-01-11T21:16:42.916Z,97207.53
2023-01-11T21:19:13.989Z,97216.97
2023-01-11T21:21:41.394Z,97210.53
2023-01-11T21:24:11.083Z,97206.94
2023-01-11T21:26:37.606Z,97201.97
2023-01-11T21:29:06.124Z,97208.19
2023-01-11T21:31:36.308Z,97193.56
2023-01-11T21:34:03.717Z,97201.63
2023-01-11T21:36:31.141Z,97219.09
2023-01-11T21:38:59.075Z,97203.13
2023-01-11T21:41:47.305Z,97209.03
2023-01-11T21:44:15.191Z,97204.34
2023-01-11T21:46:42.529Z,97202.25
2023-01-11T21:49:10.199Z,97202.75
2023-01-11T21:51:36.662Z,97206.94
2023-01-11T21:54:09.135Z,97197.72
2023-01-11T21:56:35.565Z,97193.56
2023-01-11T21:59:02.308Z,97204.41
2023-01-11T22:01:29.295Z,97207.75
2023-01-11T22:03:55.733Z,97184.88
2023-01-11T22:06:22.231Z,97199.22
2023-01-11T22:08:48.641Z,97188.94
2023-01-11T22:11:16.725Z,97199.56
2023-01-11T22:13:43.504Z,97202.97
2023-01-11T22:16:15.435Z,97201.69
2023-01-11T22:18:42.872Z,97216.09
2023-01-11T22:21:13.793Z,97205.72
2023-01-11T22:23:40.364Z,97210.38
2023-01-11T22:26:15.016Z,97214.25
2023-01-11T22:29:00.521Z,97221.75
2023-01-11T22:31:28.530Z,97214.03
2023-01-11T22:33:55.761Z,97210.50
2023-01-11T22:36:23.250Z,97205.22
2023-01-11T22:38:49.845Z,97207.19
2023-01-11T22:41:16.228Z,97193.75
2023-01-11T22:43:43.319Z,97202.72
2023-01-11T22:46:15.571Z,97184.97
2023-01-11T22:48:42.580Z,97195.78
2023-01-11T22:51:10.462Z,97198.38
2023-01-11T22:53:41.241Z,97199.78
2023-01-11T22:56:08.921Z,97194.97
2023-01-11T22:58:36.039Z,97186.19
2023-01-11T23:01:19.094Z,97193.59
2023-01-11T23:03:46.215Z,97181.97
2023-01-11T23:06:15.852Z,97171.22
2023-01-11T23:08:43.126Z,97168.69
2023-01-11T23:11:15.588Z,97182.84
2023-01-11T23:13:55.097Z,97177.88
2023-01-11T23:16:22.788Z,97172.31
2023-01-11T23:18:49.401Z,97165.16
2023-01-11T23:21:16.675Z,97171.59
2023-01-11T23:23:43.397Z,97173.19
2023-01-11T23:26:11.736Z,97169.50
2023-01-11T23:28:39.294Z,97157.41
2023-01-11T23:31:17.684Z,97166.38
2023-01-11T23:33:51.947Z,97153.72
2023-01-11T23:36:20.394Z,97149.28
2023-01-11T23:38:47.162Z,97146.44
2023-01-11T23:41:34.549Z,97143.00
2023-01-11T23:44:02.241Z,97151.75
2023-01-11T23:46:47.188Z,97145.69
2023-01-11T23:49:14.627Z,97146.47
2023-01-11T23:51:41.943Z,97152.84
2023-01-11T23:54:09.232Z,97145.16
2023-01-11T23:56:36.261Z,97153.94
2023-01-11T23:59:04.331Z,97159.09
